Time;durP1;ratioP1;P1;durP2;ratioP2;P2;SDS_P1;SDS_P2;PMS_P1;PMS_P2;Temp;Humidity;BMP_temperature;BMP_pressure;BME280_temperature;BME280_humidity;BME280_pressure;Samples;Min_cycle;Max_cycle;Signal;HPM_P1;HPM_P2
2023/03/18 00:00:16;;;;;;;0.08;0.08;;;;;;;11.60;78.01;99407.72;7334012;19;20018;-62
2023/03/18 00:02:42;;;;;;;0.00;0.00;;;;;;;11.62;78.22;99415.53;7341424;19;20019;-62
2023/03/18 00:05:09;;;;;;;0.00;0.00;;;;;;;11.62;78.44;99421.59;7337067;19;20014;-62
2023/03/18 00:07:35;;;;;;;0.00;0.00;;;;;;;11.60;78.28;99412.97;7338357;19;20977;-60
2023/03/18 00:10:01;;;;;;;0.03;0.03;;;;;;;11.66;78.32;99420.53;7343621;19;20026;-62
2023/03/18 00:12:26;;;;;;;0.10;0.10;;;;;;;11.66;78.49;99423.16;7341044;19;20018;-61
2023/03/18 00:14:52;;;;;;;0.10;0.10;;;;;;;11.70;78.43;99422.06;7337409;19;20846;-62
2023/03/18 00:17:19;;;;;;;0.05;0.05;;;;;;;11.73;77.60;99430.69;7340705;19;20014;-62
2023/03/18 00:19:44;;;;;;;0.00;0.00;;;;;;;11.70;77.99;99422.06;7336151;19;20114;-62
2023/03/18 00:22:10;;;;;;;0.00;0.00;;;;;;;11.75;78.23;99428.84;7342860;19;20901;-62
2023/03/18 00:24:36;;;;;;;0.10;0.10;;;;;;;11.79;78.27;99435.63;7348456;19;20015;-62
2023/03/18 00:27:02;;;;;;;0.10;0.10;;;;;;;11.78;78.43;99420.88;7347770;19;20859;-61
2023/03/18 00:29:29;;;;;;;0.00;0.00;;;;;;;11.85;78.07;99437.97;7347463;19;20015;-62
2023/03/18 00:31:56;;;;;;;0.00;0.00;;;;;;;11.88;78.15;99441.31;7343971;19;20018;-62
2023/03/18 00:34:21;;;;;;;0.10;0.10;;;;;;;11.91;78.36;99450.75;7343263;19;20082;-61
2023/03/18 00:36:49;;;;;;;0.00;0.00;;;;;;;11.94;78.35;99453.25;7345425;19;20464;-62
2023/03/18 00:39:17;;;;;;;0.00;0.00;;;;;;;11.95;78.17;99449.69;7341490;19;20015;-62
2023/03/18 00:41:42;;;;;;;;;;;;;;;12.02;77.11;99451.13;7349800;19;20126;-62
2023/03/18 00:44:08;;;;;;;0.00;0.00;;;;;;;11.99;78.05;99451.25;7346053;19;20554;-62
2023/03/18 00:46:36;;;;;;;0.00;0.00;;;;;;;12.02;77.97;99455.50;7346063;19;20015;-62
2023/03/18 00:49:04;;;;;;;;;;;;;;;12.06;77.05;99457.88;7346624;19;20071;-62
2023/03/18 00:51:30;;;;;;;;;;;;;;;12.07;76.67;99454.34;7346751;19;19939;-61
2023/03/18 00:53:57;;;;;;;0.10;0.10;;;;;;;12.00;77.16;99447.69;7339194;19;19926;-62
2023/03/18 00:56:30;;;;;;;0.10;0.10;;;;;;;11.94;77.15;99442.78;7347900;19;20039;-62
2023/03/18 00:58:56;;;;;;;0.00;0.00;;;;;;;12.02;77.70;99450.28;7343846;19;20010;-62
2023/03/18 01:01:23;;;;;;;0.00;0.00;;;;;;;12.01;77.68;99454.63;7345594;19;20767;-62
2023/03/18 01:03:49;;;;;;;0.00;0.00;;;;;;;12.00;77.85;99452.94;7341801;19;20051;-62
2023/03/18 01:06:18;;;;;;;0.00;0.00;;;;;;;12.02;77.92;99461.59;7348104;19;20451;-62
2023/03/18 01:08:44;;;;;;;0.10;0.10;;;;;;;11.64;78.03;99393.59;7345715;19;20014;-62
2023/03/18 01:11:10;;;;;;;0.00;0.00;;;;;;;11.95;77.97;99445.31;7345637;19;20009;-62
2023/03/18 01:13:36;;;;;;;0.00;0.00;;;;;;;12.02;77.70;99456.34;7345861;19;20031;-62
2023/03/18 01:16:02;;;;;;;0.03;0.03;;;;;;;12.02;77.67;99455.50;7349040;19;20654;-62
2023/03/18 01:18:29;;;;;;;0.10;0.10;;;;;;;12.04;78.07;99457.09;7341069;19;20643;-62
2023/03/18 01:20:54;;;;;;;0.00;0.00;;;;;;;12.03;77.83;99452.81;7346771;19;20017;-62
2023/03/18 01:23:20;;;;;;;0.00;0.00;;;;;;;12.01;77.54;99453.78;7346478;19;20014;-62
2023/03/18 01:25:45;;;;;;;0.05;0.05;;;;;;;12.03;77.60;99462.41;7346881;19;20010;-62
2023/03/18 01:28:12;;;;;;;0.05;0.05;;;;;;;12.02;78.04;99466.81;7343929;19;20018;-62
2023/03/18 01:30:39;;;;;;;0.10;0.10;;;;;;;12.02;77.81;99460.72;7347366;19;20026;-60
2023/03/18 01:33:08;;;;;;;0.00;0.00;;;;;;;12.01;77.69;99459.00;7344854;19;20017;-62
2023/03/18 01:35:35;;;;;;;0.00;0.00;;;;;;;11.75;77.74;99426.22;7347749;19;20007;-62
2023/03/18 01:38:04;;;;;;;0.10;0.10;;;;;;;12.03;77.59;99467.66;7342608;19;20055;-61
2023/03/18 01:40:32;;;;;;;0.00;0.00;;;;;;;12.02;77.67;99469.44;7346853;19;20241;-62
2023/03/18 01:43:19;;;;;;;0.10;0.10;;;;;;;12.05;77.18;99471.88;7341619;19;20049;-62
2023/03/18 01:45:50;;;;;;;0.00;0.00;;;;;;;12.02;77.79;99466.81;7345266;19;20014;-62
2023/03/18 01:48:18;;;;;;;0.10;0.10;;;;;;;12.00;77.89;99470.41;7343516;19;20053;-62
2023/03/18 01:50:45;;;;;;;;;;;;;;;12.07;77.12;99474.44;7344370;19;20016;-62
2023/03/18 01:53:15;;;;;;;0.00;0.00;;;;;;;11.97;77.51;99463.56;7344106;19;19914;-62
2023/03/18 01:55:44;;;;;;;0.10;0.10;;;;;;;11.95;77.52;99465.41;7343960;19;20534;-62
2023/03/18 01:58:18;;;;;;;0.00;0.00;;;;;;;12.01;77.71;99475.56;7345298;19;20014;-62
2023/03/18 02:00:50;;;;;;;0.00;0.00;;;;;;;11.99;77.80;99477.41;7344292;19;20006;-62
2023/03/18 02:03:16;;;;;;;0.08;0.08;;;;;;;11.87;77.81;99462.31;7340484;19;20043;-62
2023/03/18 02:05:43;;;;;;;0.10;0.10;;;;;;;11.94;77.88;99475.00;7347741;19;20017;-62
2023/03/18 02:08:08;;;;;;;0.10;0.10;;;;;;;11.96;77.91;99482.78;7342236;19;20021;-62
2023/03/18 02:10:36;;;;;;;0.00;0.00;;;;;;;11.96;77.77;99477.53;7339714;19;20006;-62
2023/03/18 02:13:08;;;;;;;0.00;0.00;;;;;;;11.86;77.80;99460.59;7343974;19;20017;-62
2023/03/18 02:15:39;;;;;;;0.10;0.10;;;;;;;11.99;77.62;99487.88;7345356;19;20007;-61
2023/03/18 02:18:37;;;;;;;0.00;0.00;;;;;;;12.02;77.24;99487.75;7344164;19;20015;-62
2023/03/18 02:21:03;;;;;;;0.00;0.00;;;;;;;11.98;77.99;99486.19;7245311;19;2004342;-61
2023/03/18 02:23:49;;;;;;;0.10;0.10;;;;;;;12.03;77.33;99492.06;7348821;19;20043;-62
2023/03/18 02:26:22;;;;;;;0.00;0.00;;;;;;;12.00;77.57;99494.81;7346822;19;20477;-62
2023/03/18 02:28:50;;;;;;;0.10;0.10;;;;;;;11.88;78.03;99471.84;7350013;19;20093;-62
2023/03/18 02:31:17;;;;;;;0.00;0.00;;;;;;;11.86;77.83;99465.81;7342373;19;20014;-62
2023/03/18 02:33:44;;;;;;;0.10;0.10;;;;;;;12.00;77.80;99493.94;7350730;19;20318;-62
2023/03/18 02:36:27;;;;;;;0.00;0.00;;;;;;;12.02;77.73;99494.75;7349543;19;20035;-62
2023/03/18 02:38:54;;;;;;;0.10;0.10;;;;;;;11.99;77.83;99503.56;7350205;19;20006;-62
2023/03/18 02:41:26;;;;;;;0.00;0.00;;;;;;;12.02;77.56;99502.59;7347189;19;20109;-60
2023/03/18 02:43:51;;;;;;;0.00;0.00;;;;;;;11.96;77.54;99498.47;7354181;19;20922;-62
2023/03/18 02:46:40;;;;;;;0.08;0.08;;;;;;;12.03;77.66;99505.13;7353259;19;20047;-62
2023/03/18 02:49:07;;;;;;;0.10;0.10;;;;;;;11.93;77.57;99493.41;7250853;19;2004406;-62
2023/03/18 02:51:35;;;;;;;0.00;0.00;;;;;;;11.97;77.45;99505.44;7349548;19;20081;-62
2023/03/18 02:54:11;;;;;;;0.00;0.00;;;;;;;11.95;77.42;99497.63;7354790;19;20014;-62
2023/03/18 02:56:37;;;;;;;0.08;0.08;;;;;;;12.00;77.92;99509.66;7348243;19;20010;-62
2023/03/18 02:59:03;;;;;;;0.00;0.00;;;;;;;12.00;77.79;99509.66;7339237;19;20064;-62
2023/03/18 03:01:31;;;;;;;0.10;0.10;;;;;;;11.88;77.50;99495.41;7352112;19;20018;-61
2023/03/18 03:03:56;;;;;;;0.00;0.00;;;;;;;11.96;77.62;99522.03;7354361;19;20045;-62
2023/03/18 03:06:22;;;;;;;0.00;0.00;;;;;;;12.00;77.71;99515.72;7350104;19;20010;-62
2023/03/18 03:08:47;;;;;;;0.10;0.10;;;;;;;11.90;77.80;99510.09;7354934;19;20011;-62
2023/03/18 03:11:13;;;;;;;0.10;0.10;;;;;;;12.02;77.87;99528.75;7351865;19;20016;-62
2023/03/18 03:13:40;;;;;;;0.10;0.10;;;;;;;12.02;77.61;99529.59;7354973;19;20018;-62
2023/03/18 03:16:08;;;;;;;0.00;0.00;;;;;;;11.90;77.47;99501.38;7353082;19;20041;-62
2023/03/18 03:18:34;;;;;;;;;;;;;;;12.08;77.21;99525.84;7352440;19;20014;-62
2023/03/18 03:21:00;;;;;;;0.00;0.00;;;;;;;11.99;77.27;99513.19;7351778;19;19914;-62
2023/03/18 03:23:26;;;;;;;0.00;0.00;;;;;;;12.00;77.76;99526.19;7347958;19;20022;-61
2023/03/18 03:25:51;;;;;;;0.00;0.00;;;;;;;11.99;77.91;99529.75;7346352;19;20035;-62
2023/03/18 03:28:17;;;;;;;0.08;0.08;;;;;;;12.00;77.54;99531.44;7350470;19;20755;-61
2023/03/18 03:30:43;;;;;;;0.08;0.08;;;;;;;11.98;77.68;99535.91;7353194;19;20018;-62
2023/03/18 03:33:09;;;;;;;0.10;0.10;;;;;;;11.90;77.61;99522.31;7351678;19;21413;-62
2023/03/18 03:35:34;;;;;;;0.03;0.03;;;;;;;11.87;77.67;99519.88;7351348;19;20017;-62
2023/03/18 03:38:00;;;;;;;0.10;0.10;;;;;;;11.99;77.63;99542.81;7347527;19;20011;-62
2023/03/18 03:40:26;;;;;;;0.03;0.03;;;;;;;12.00;77.96;99547.13;7348946;19;20020;-62
2023/03/18 03:42:52;;;;;;;0.10;0.10;;;;;;;11.94;77.80;99534.34;7356904;19;20014;-62
2023/03/18 03:45:18;;;;;;;0.00;0.00;;;;;;;11.90;77.63;99530.16;7360227;19;20031;-62
2023/03/18 03:47:45;;;;;;;0.00;0.00;;;;;;;12.00;77.70;99547.13;7355875;19;20013;-62
2023/03/18 03:50:12;;;;;;;0.03;0.03;;;;;;;12.01;77.52;99543.59;7358998;19;20317;-61
2023/03/18 03:52:38;;;;;;;0.10;0.10;;;;;;;12.02;77.47;99550.53;7346161;19;20338;-62
2023/03/18 03:55:06;;;;;;;0.00;0.00;;;;;;;12.02;77.86;99550.53;7360532;19;20010;-62
2023/03/18 03:57:32;;;;;;;0.10;0.10;;;;;;;12.02;77.43;99547.06;7354090;19;20011;-62
2023/03/18 03:59:57;;;;;;;0.00;0.00;;;;;;;11.88;77.73;99526.78;7357048;19;20838;-62
2023/03/18 04:02:23;;;;;;;0.05;0.05;;;;;;;12.02;77.83;99555.78;7356690;19;20014;-62
2023/03/18 04:04:49;;;;;;;0.00;0.00;;;;;;;12.02;77.82;99547.94;7337848;19;20682;-62
2023/03/18 04:07:15;;;;;;;0.00;0.00;;;;;;;12.01;77.64;99543.59;7359219;19;20086;-61
2023/03/18 04:09:41;;;;;;;0.03;0.03;;;;;;;12.02;77.37;99544.47;7358486;19;20014;-62
2023/03/18 04:12:07;;;;;;;0.10;0.10;;;;;;;11.63;77.36;99474.75;7356856;19;20097;-62
2023/03/18 04:14:33;;;;;;;0.00;0.00;;;;;;;12.02;77.72;99547.94;7358508;19;20006;-62
2023/03/18 04:16:59;;;;;;;0.00;0.00;;;;;;;11.86;77.44;99523.38;7359973;19;20018;-62
2023/03/18 04:19:26;;;;;;;0.10;0.10;;;;;;;12.02;77.79;99549.69;7339640;19;20418;-62
2023/03/18 04:21:52;;;;;;;0.10;0.10;;;;;;;11.97;77.67;99539.44;7357993;19;20026;-60
2023/03/18 04:24:20;;;;;;;0.00;0.00;;;;;;;12.00;77.32;99546.28;7354978;19;20010;-62
2023/03/18 04:26:45;;;;;;;0.00;0.00;;;;;;;11.61;77.49;99482.66;7360439;19;20022;-62
2023/03/18 04:29:10;;;;;;;0.00;0.00;;;;;;;12.00;77.30;99547.13;7358615;19;20002;-62
2023/03/18 04:31:36;;;;;;;0.10;0.10;;;;;;;11.98;77.49;99543.75;7355608;19;20029;-62
2023/03/18 04:34:01;;;;;;;0.00;0.00;;;;;;;12.00;77.72;99547.13;7360500;19;20006;-62
2023/03/18 04:36:27;;;;;;;0.08;0.08;;;;;;;12.00;77.37;99541.91;7358643;19;20046;-62
2023/03/18 04:38:53;;;;;;;0.00;0.00;;;;;;;12.01;77.46;99542.75;7360493;19;20002;-62
2023/03/18 04:41:18;;;;;;;0.00;0.00;;;;;;;12.01;77.74;99548.81;7357600;19;20002;-62
2023/03/18 04:43:43;;;;;;;0.00;0.00;;;;;;;11.99;77.33;99553.28;7360919;19;20025;-62
2023/03/18 04:46:10;;;;;;;0.10;0.10;;;;;;;12.00;77.29;99557.59;7353425;19;20019;-62
2023/03/18 04:48:37;;;;;;;0.00;0.00;;;;;;;11.98;77.27;99561.22;7355992;19;20010;-62
2023/03/18 04:51:03;;;;;;;0.10;0.10;;;;;;;11.97;77.40;99564.75;7359199;19;20010;-62
2023/03/18 04:53:30;;;;;;;0.05;0.05;;;;;;;11.96;77.42;99561.25;7358579;19;20006;-62
2023/03/18 04:55:55;;;;;;;0.10;0.10;;;;;;;11.84;77.81;99551.38;7358201;19;20062;-62
2023/03/18 04:58:22;;;;;;;0.00;0.00;;;;;;;11.92;77.69;99564.97;7357684;19;22364;-62
2023/03/18 05:00:47;;;;;;;0.00;0.00;;;;;;;11.93;77.80;99566.66;7355842;19;20109;-62
2023/03/18 05:03:13;;;;;;;0.10;0.10;;;;;;;11.93;77.42;99577.13;7359488;19;20524;-62
2023/03/18 05:05:38;;;;;;;0.00;0.00;;;;;;;11.93;77.43;99571.88;7355908;19;20006;-61
2023/03/18 05:08:04;;;;;;;0.00;0.00;;;;;;;11.91;77.83;99569.34;7360101;19;20018;-62
2023/03/18 05:10:30;;;;;;;0.00;0.00;;;;;;;11.91;77.70;99576.31;7355270;19;20022;-61
2023/03/18 05:12:55;;;;;;;0.00;0.00;;;;;;;11.92;77.79;99572.81;7358951;19;20493;-62
2023/03/18 05:15:21;;;;;;;0.00;0.00;;;;;;;11.91;77.50;99573.72;7354069;19;20018;-61
2023/03/18 05:17:46;;;;;;;0.00;0.00;;;;;;;11.92;77.60;99585.91;7360113;19;20435;-62
2023/03/18 05:20:12;;;;;;;0.10;0.10;;;;;;;11.91;77.43;99581.56;7354288;19;20017;-62
2023/03/18 05:22:38;;;;;;;0.10;0.10;;;;;;;11.91;77.57;99573.72;7356517;19;20010;-61
2023/03/18 05:25:06;;;;;;;0.10;0.10;;;;;;;11.91;77.82;99576.31;7359503;19;20086;-61
2023/03/18 05:27:31;;;;;;;0.10;0.10;;;;;;;11.90;77.77;99577.25;7355338;19;20011;-62
2023/03/18 05:29:56;;;;;;;0.00;0.00;;;;;;;11.89;77.43;99570.34;7358303;19;20849;-62
2023/03/18 05:32:22;;;;;;;0.10;0.10;;;;;;;11.88;77.64;99579.09;7358433;19;20014;-62
2023/03/18 05:34:48;;;;;;;0.03;0.03;;;;;;;11.86;77.65;99575.69;7357677;19;20049;-62
2023/03/18 05:37:14;;;;;;;0.00;0.00;;;;;;;11.84;77.72;99578.38;7357782;19;20483;-62
2023/03/18 05:39:41;;;;;;;0.00;0.00;;;;;;;11.81;77.69;99575.03;7358335;19;20018;-61
2023/03/18 05:42:08;;;;;;;0.10;0.10;;;;;;;11.78;77.51;99580.41;7355511;19;20098;-62
2023/03/18 05:44:34;;;;;;;0.00;0.00;;;;;;;11.73;77.33;99590.22;7354047;19;20074;-62
2023/03/18 05:47:01;;;;;;;0.08;0.08;;;;;;;11.69;77.58;99590.34;7355712;19;22545;-62
2023/03/18 05:49:27;;;;;;;0.00;0.00;;;;;;;11.64;77.36;99592.34;7356197;19;20006;-62
2023/03/18 05:51:53;;;;;;;0.00;0.00;;;;;;;11.62;77.76;99599.41;7358983;19;20846;-62
2023/03/18 05:54:19;;;;;;;0.10;0.10;;;;;;;11.57;77.83;99603.16;7356847;19;20027;-62
2023/03/18 05:56:45;;;;;;;0.00;0.00;;;;;;;11.54;77.72;99611.13;7357158;19;21344;-62
2023/03/18 05:59:12;;;;;;;0.10;0.10;;;;;;;11.51;78.01;99612.13;7355355;19;20018;-62
2023/03/18 06:01:38;;;;;;;0.00;0.00;;;;;;;11.48;77.97;99612.22;7355705;19;20832;-62
2023/03/18 06:04:07;;;;;;;0.00;0.00;;;;;;;11.46;77.94;99608.00;7354607;19;20006;-61
2023/03/18 06:06:36;;;;;;;0.00;0.00;;;;;;;11.45;77.82;99612.34;7356354;19;20599;-62
2023/03/18 06:09:02;;;;;;;0.00;0.00;;;;;;;11.32;78.20;99585.06;7348560;19;21173;-60
2023/03/18 06:11:28;;;;;;;0.00;0.00;;;;;;;11.32;78.53;99590.31;7357855;19;20018;-62
2023/03/18 06:13:54;;;;;;;0.03;0.03;;;;;;;11.43;78.32;99603.75;7355424;19;20014;-61
2023/03/18 06:16:19;;;;;;;0.10;0.10;;;;;;;11.43;78.46;99608.97;7355113;19;20025;-62
2023/03/18 06:18:44;;;;;;;0.00;0.00;;;;;;;11.42;78.41;99605.50;7353833;19;20019;-61
2023/03/18 06:21:10;;;;;;;0.00;0.00;;;;;;;11.43;78.54;99615.03;7358178;19;20014;-62
2023/03/18 06:23:36;;;;;;;0.05;0.05;;;;;;;11.43;78.50;99608.97;7356293;19;20027;-61
2023/03/18 06:26:03;;;;;;;0.10;0.10;;;;;;;11.44;78.62;99621.13;7357390;19;20073;-61
2023/03/18 06:28:28;;;;;;;0.05;0.05;;;;;;;11.45;78.49;99620.19;7353582;19;20015;-61
2023/03/18 06:30:56;;;;;;;0.00;0.00;;;;;;;11.34;78.42;99612.81;7357353;19;20022;-62
2023/03/18 06:33:22;;;;;;;0.00;0.00;;;;;;;11.36;78.59;99612.78;7353402;19;20021;-62
2023/03/18 06:35:48;;;;;;;0.00;0.00;;;;;;;11.48;78.45;99638.38;7358294;19;20817;-62
2023/03/18 06:38:15;;;;;;;0.00;0.00;;;;;;;11.49;78.20;99642.69;7353886;19;20787;-62
2023/03/18 06:40:41;;;;;;;0.10;0.10;;;;;;;11.44;78.30;99631.56;7355405;19;20748;-61
2023/03/18 06:43:07;;;;;;;0.00;0.00;;;;;;;11.51;78.67;99643.50;7354784;19;20017;-62
2023/03/18 06:45:33;;;;;;;0.10;0.10;;;;;;;11.53;78.47;99649.47;7355499;19;20575;-61
2023/03/18 06:47:59;;;;;;;0.00;0.00;;;;;;;11.54;78.38;99653.78;7353380;19;20515;-61
2023/03/18 06:50:25;;;;;;;0.08;0.08;;;;;;;11.56;78.41;99661.59;7354674;19;20486;-61
2023/03/18 06:52:51;;;;;;;0.00;0.00;;;;;;;11.43;78.06;99640.34;7357069;19;20010;-62
2023/03/18 06:55:17;;;;;;;0.10;0.10;;;;;;;11.57;78.28;99658.91;7356257;19;20010;-62
2023/03/18 06:57:43;;;;;;;0.05;0.05;;;;;;;11.59;78.07;99664.91;7346449;19;20035;-62
2023/03/18 07:00:09;;;;;;;0.10;0.10;;;;;;;11.53;78.17;99659.94;7352203;19;20018;-62
2023/03/18 07:02:35;;;;;;;0.03;0.03;;;;;;;11.62;78.11;99674.41;7346253;19;20034;-62
2023/03/18 07:05:01;;;;;;;0.10;0.10;;;;;;;11.63;78.24;99679.53;7353381;19;20675;-61
2023/03/18 07:07:27;;;;;;;0.00;0.00;;;;;;;11.63;78.06;99679.53;7354304;19;20014;-62
2023/03/18 07:09:53;;;;;;;0.05;0.05;;;;;;;11.65;78.29;99682.94;7352179;19;20002;-61
2023/03/18 07:12:19;;;;;;;0.00;0.00;;;;;;;11.54;77.99;99663.41;7353674;19;20021;-62
2023/03/18 07:14:44;;;;;;;0.00;0.00;;;;;;;11.70;77.97;99691.44;7348894;19;20036;-62
2023/03/18 07:17:09;;;;;;;0.00;0.00;;;;;;;11.73;77.89;99689.63;7353399;19;20015;-62
2023/03/18 07:19:35;;;;;;;0.10;0.10;;;;;;;11.74;77.94;99697.38;7336202;19;20011;-62
2023/03/18 07:22:01;;;;;;;0.00;0.00;;;;;;;11.68;77.67;99676.75;7353973;19;20624;-61
2023/03/18 07:24:27;;;;;;;0.10;0.10;;;;;;;11.77;78.01;99692.03;7345224;19;20010;-62
2023/03/18 07:26:53;;;;;;;0.00;0.00;;;;;;;11.81;77.70;99700.56;7354923;19;20007;-61
2023/03/18 07:29:19;;;;;;;0.10;0.10;;;;;;;11.83;77.87;99698.78;7352671;19;20663;-61
2023/03/18 07:31:45;;;;;;;0.10;0.10;;;;;;;11.84;77.80;99706.56;7348689;19;20011;-62
2023/03/18 07:34:12;;;;;;;0.10;0.10;;;;;;;11.88;77.89;99709.91;7353043;19;20021;-61
2023/03/18 07:36:38;;;;;;;0.10;0.10;;;;;;;11.91;77.61;99707.13;7346045;19;20498;-62
2023/03/18 07:39:04;;;;;;;0.00;0.00;;;;;;;11.92;77.34;99711.47;7349944;19;20007;-62
2023/03/18 07:41:30;;;;;;;0.00;0.00;;;;;;;11.95;77.42;99706.09;7351992;19;20014;-61
2023/03/18 07:43:55;;;;;;;0.00;0.00;;;;;;;11.89;77.38;99699.38;7351670;19;20066;-62
2023/03/18 07:46:21;;;;;;;0.10;0.10;;;;;;;11.81;77.50;99679.66;7352086;19;20019;-61
2023/03/18 07:48:47;;;;;;;0.10;0.10;;;;;;;11.92;77.55;99698.38;7345388;19;20017;-62
2023/03/18 07:51:14;;;;;;;0.00;0.00;;;;;;;12.07;77.56;99716.03;7354474;19;20043;-62
2023/03/18 07:53:40;;;;;;;0.00;0.00;;;;;;;12.10;77.45;99725.50;7346718;19;20884;-62
2023/03/18 07:56:06;;;;;;;0.10;0.10;;;;;;;12.03;77.48;99709.22;7353269;19;20010;-62
2023/03/18 07:58:33;;;;;;;0.10;0.10;;;;;;;12.16;77.09;99726.06;7349564;19;20109;-62
2023/03/18 08:00:58;;;;;;;0.10;0.10;;;;;;;12.19;77.19;99725.94;7353051;19;20052;-62
2023/03/18 08:03:24;;;;;;;0.00;0.00;;;;;;;12.14;77.14;99716.59;7345945;19;20044;-62
2023/03/18 08:05:50;;;;;;;0.00;0.00;;;;;;;12.27;76.79;99730.84;7350351;19;20088;-62
2023/03/18 08:08:15;;;;;;;0.08;0.08;;;;;;;12.31;76.97;99735.00;7353462;19;20025;-62
2023/03/18 08:10:41;;;;;;;0.00;0.00;;;;;;;12.37;77.00;99736.50;7348296;19;20015;-62
2023/03/18 08:13:06;;;;;;;0.05;0.05;;;;;;;12.40;76.58;99745.06;7350333;19;20017;-62
2023/03/18 08:15:32;;;;;;;0.10;0.10;;;;;;;12.46;76.69;99738.69;7351745;19;20017;-62
2023/03/18 08:17:57;;;;;;;0.00;0.00;;;;;;;12.51;76.73;99741.94;7350450;19;20479;-62
2023/03/18 08:20:23;;;;;;;0.10;0.10;;;;;;;12.53;76.70;99744.50;7346278;19;20018;-62
2023/03/18 08:22:49;;;;;;;0.10;0.10;;;;;;;12.60;76.22;99752.00;7348155;19;20038;-62
2023/03/18 08:25:15;;;;;;;0.10;0.10;;;;;;;12.63;76.56;99738.78;7352190;19;20355;-62
2023/03/18 08:27:40;;;;;;;0.03;0.03;;;;;;;12.72;76.41;99756.69;7349106;19;20019;-62
2023/03/18 08:30:07;;;;;;;0.10;0.10;;;;;;;12.80;76.32;99756.31;7354808;19;20101;-62
2023/03/18 08:32:32;;;;;;;0.00;0.00;;;;;;;12.88;76.34;99755.97;7351996;19;20014;-62
2023/03/18 08:34:58;;;;;;;0.00;0.00;;;;;;;12.95;75.79;99765.22;7358373;19;20430;-62
2023/03/18 08:37:23;;;;;;;0.00;0.00;;;;;;;13.04;76.18;99761.31;7354783;19;20039;-62
2023/03/18 08:39:49;;;;;;;0.00;0.00;;;;;;;13.13;76.17;99766.97;7356258;19;20021;-62
2023/03/18 08:42:15;;;;;;;0.10;0.10;;;;;;;13.24;76.26;99763.88;7351309;19;20086;-62
2023/03/18 08:44:42;;;;;;;0.00;0.00;;;;;;;13.36;76.13;99767.66;7357085;19;20010;-62
2023/03/18 08:47:07;;;;;;;0.00;0.00;;;;;;;13.53;75.66;99770.28;7356811;19;20050;-62
2023/03/18 08:49:33;;;;;;;0.10;0.10;;;;;;;13.71;75.78;99766.75;7356143;19;20014;-63
2023/03/18 08:51:58;;;;;;;0.10;0.10;;;;;;;13.85;75.34;99773.09;7355122;19;20018;-62
2023/03/18 08:54:24;;;;;;;0.10;0.10;;;;;;;13.95;74.76;99783.03;7356297;19;20584;-62
2023/03/18 08:56:51;;;;;;;0.03;0.03;;;;;;;14.05;74.57;99783.41;7354814;19;20573;-62
2023/03/18 08:59:17;;;;;;;0.00;0.00;;;;;;;14.10;73.83;99784.03;7354722;19;20017;-62
2023/03/18 09:01:42;;;;;;;0.10;0.10;;;;;;;14.16;74.59;99796.81;7357187;19;20093;-62
2023/03/18 09:04:08;;;;;;;0.00;0.00;;;;;;;14.12;73.90;99790.03;7353847;19;20021;-61
2023/03/18 09:06:33;;;;;;;0.10;0.10;;;;;;;14.16;73.78;99801.22;7347004;19;20396;-62
2023/03/18 09:08:59;;;;;;;0.10;0.10;;;;;;;14.15;73.46;99795.13;7344516;19;20596;-62
2023/03/18 09:11:25;;;;;;;0.10;0.10;;;;;;;14.14;73.20;99792.56;7349833;19;20126;-62
2023/03/18 09:13:51;;;;;;;0.10;0.10;;;;;;;14.09;73.67;99786.69;7352237;19;20093;-62
2023/03/18 09:16:17;;;;;;;0.10;0.10;;;;;;;14.12;72.80;99795.28;7349064;19;20014;-62
2023/03/18 09:18:42;;;;;;;0.10;0.10;;;;;;;14.09;73.38;99790.22;7345237;19;20807;-62
2023/03/18 09:21:08;;;;;;;0.10;0.10;;;;;;;14.12;73.37;99795.28;7343788;19;20662;-62
2023/03/18 09:23:33;;;;;;;0.10;0.10;;;;;;;14.13;73.27;99791.72;7349509;19;20751;-62
2023/03/18 09:25:59;;;;;;;0.10;0.10;;;;;;;14.18;73.79;99799.34;7357145;19;20010;-62
2023/03/18 09:28:25;;;;;;;0.03;0.03;;;;;;;14.08;73.09;99777.97;7352011;19;20222;-62
2023/03/18 09:30:54;;;;;;;0.10;0.10;;;;;;;14.23;73.30;99798.19;7349719;19;20022;-62
2023/03/18 09:33:21;;;;;;;0.10;0.10;;;;;;;14.28;73.49;99805.84;7352359;19;20014;-62
2023/03/18 09:35:47;;;;;;;0.00;0.00;;;;;;;14.32;73.32;99798.66;7354183;19;20022;-62
2023/03/18 09:38:18;;;;;;;0.08;0.08;;;;;;;14.40;73.09;99809.63;7350542;19;20597;-62
2023/03/18 09:41:07;;;;;;;0.10;0.10;;;;;;;14.47;73.19;99805.72;7355612;19;20037;-62
2023/03/18 09:43:45;;;;;;;0.10;0.10;;;;;;;14.52;73.16;99804.56;7351749;19;20918;-62
2023/03/18 09:46:25;;;;;;;0.00;0.00;;;;;;;14.52;72.46;99808.97;7349985;19;20014;-62
2023/03/18 09:48:55;;;;;;;0.10;0.10;;;;;;;14.55;72.58;99816.72;7352796;19;20018;-62
2023/03/18 09:51:59;;;;;;;0.00;0.00;;;;;;;14.58;72.23;99818.31;7353709;19;20022;-64
2023/03/18 09:54:30;;;;;;;0.10;0.10;;;;;;;14.56;72.25;99813.16;7246637;19;2004222;-62
2023/03/18 09:56:56;;;;;;;0.10;0.10;;;;;;;14.64;72.17;99825.88;7350487;19;20127;-62
2023/03/18 09:59:36;;;;;;;0.10;0.10;;;;;;;14.66;72.10;99830.13;7355153;19;20006;-62
2023/03/18 10:02:04;;;;;;;0.10;0.10;;;;;;;14.64;71.75;99831.13;7351465;19;20086;-62
2023/03/18 10:04:41;;;;;;;0.10;0.10;;;;;;;14.65;72.15;99840.69;7355111;19;20081;-62
2023/03/18 10:07:13;;;;;;;0.00;0.00;;;;;;;14.65;71.97;99841.56;7353565;19;20011;-62
2023/03/18 10:09:44;;;;;;;0.10;0.10;;;;;;;14.63;71.46;99838.16;7356826;19;20589;-62
2023/03/18 10:12:24;;;;;;;0.10;0.10;;;;;;;14.62;71.61;99839.09;7357469;19;20303;-62
2023/03/18 10:15:21;;;;;;;0.10;0.10;;;;;;;14.68;72.00;99840.53;7352532;19;20015;-62
2023/03/18 10:18:03;;;;;;;0.10;0.10;;;;;;;14.67;71.89;99846.72;7253740;19;2004617;-62
2023/03/18 10:21:04;;;;;;;0.10;0.10;;;;;;;14.68;72.08;99851.06;7355723;19;20639;-62
2023/03/18 10:23:43;;;;;;;0.00;0.00;;;;;;;14.70;71.97;99854.44;7244072;19;2004284;-61
2023/03/18 10:26:14;;;;;;;0.10;0.10;;;;;;;14.74;71.47;99853.34;7351462;19;20022;-62
2023/03/18 10:28:46;;;;;;;0.10;0.10;;;;;;;14.75;71.15;99841.91;7349577;19;20674;-62
2023/03/18 10:31:30;;;;;;;0.10;0.10;;;;;;;14.83;71.79;99852.00;7339005;19;20014;-62
2023/03/18 10:34:12;;;;;;;0.10;0.10;;;;;;;14.83;71.40;99844.97;7342594;19;20011;-62
2023/03/18 10:36:38;;;;;;;0.10;0.10;;;;;;;14.79;71.01;99853.94;7342073;19;20027;-62
2023/03/18 10:39:15;;;;;;;0.10;0.10;;;;;;;14.85;71.11;99860.66;7339669;19;20018;-62
2023/03/18 10:41:42;;;;;;;0.08;0.08;;;;;;;14.84;71.18;99856.34;7344823;19;20021;-62
2023/03/18 10:44:37;;;;;;;0.03;0.03;;;;;;;14.88;71.47;99860.50;7345797;19;20039;-61
2023/03/18 10:47:14;;;;;;;0.10;0.10;;;;;;;14.86;71.40;99859.75;7253941;19;2004556;-62
2023/03/18 10:49:45;;;;;;;0.00;0.00;;;;;;;14.84;71.32;99867.69;7353499;19;20022;-58
2023/03/18 10:52:10;;;;;;;0.10;0.10;;;;;;;14.85;71.12;99860.66;7351533;19;20495;-58
2023/03/18 10:54:42;;;;;;;0.10;0.10;;;;;;;14.92;71.21;99864.66;7355078;19;20006;-57
2023/03/18 10:57:15;;;;;;;0.10;0.10;;;;;;;14.94;71.24;99863.63;7336991;19;20361;-58
2023/03/18 10:59:44;;;;;;;0.08;0.08;;;;;;;14.93;71.07;99866.38;7358830;19;20023;-58
2023/03/18 11:02:25;;;;;;;0.10;0.10;;;;;;;14.96;71.70;99881.97;7354245;19;20093;-57
2023/03/18 11:05:04;;;;;;;0.10;0.10;;;;;;;14.97;71.37;99875.78;7354704;19;20045;-59
2023/03/18 11:07:29;;;;;;;0.10;0.10;;;;;;;14.81;70.93;99867.03;7354908;19;20010;-57
2023/03/18 11:10:11;;;;;;;0.10;0.10;;;;;;;14.97;71.23;99888.94;7356704;19;20016;-58
2023/03/18 11:12:36;;;;;;;0.10;0.10;;;;;;;14.94;70.87;99889.09;7356719;19;20025;-58
2023/03/18 11:15:09;;;;;;;0.10;0.10;;;;;;;14.97;70.56;99896.81;7355093;19;20014;-58
2023/03/18 11:17:37;;;;;;;0.10;0.10;;;;;;;14.94;70.66;99889.94;7357428;19;20584;-58
2023/03/18 11:20:20;;;;;;;0.10;0.10;;;;;;;14.94;70.69;99895.19;7348293;19;20047;-58
2023/03/18 11:22:51;;;;;;;0.03;0.03;;;;;;;14.91;70.74;99899.78;7355926;19;20027;-58
2023/03/18 11:25:25;;;;;;;0.00;0.00;;;;;;;14.88;71.10;99902.56;7355169;19;20010;-58
2023/03/18 11:28:20;;;;;;;0.10;0.10;;;;;;;14.90;71.02;99905.94;7354499;19;20018;-58
2023/03/18 11:30:48;;;;;;;0.10;0.10;;;;;;;14.88;71.24;99906.03;7254837;19;2004689;-59
2023/03/18 11:33:16;;;;;;;0.10;0.10;;;;;;;14.88;71.03;99910.44;7354496;19;20017;-58
2023/03/18 11:35:50;;;;;;;0.00;0.00;;;;;;;14.90;70.92;99903.31;7352103;19;20689;-58
2023/03/18 11:38:31;;;;;;;0.10;0.10;;;;;;;14.87;70.81;99909.59;7351599;19;20014;-58